Meteorología y climatología de Navarra
Datos de la estación - Meteo Navarra

Estación de Aoiz GN

Altitud 534 m.


Datos desde el 02/08/2020 hasta el 03/08/2020 en horario solar
Los datos son PROVISIONALES

Anterior Página 1 de 1 Siguiente Descargar: Formato para Excel 2000 o superior   Formato csv   Formato para OpenOffice Calc
Fecha Temperatura Humedad relativa Radiación global Insolación Precipitación Vel. viento 10 m Vel. viento 10 m Dir. viento 10 m
ºC % W/m² s l/m² m/s km/h º
02/08/2020 0:00 19.8 75 0.0 0 0.0 2.7 9.9 308
02/08/2020 0:10 19.7 75 0.0 0 0.0 2.9 10.4 303
02/08/2020 0:20 19.6 76 0.0 0 0.0 3.8 13.8 290
02/08/2020 0:30 19.5 75 0.0 0 0.0 2.2 7.8 308
02/08/2020 0:40 19.3 75 0.0 0 0.0 1.9 6.8 304
02/08/2020 0:50 19.3 75 0.0 0 0.0 2.9 10.4 293
02/08/2020 1:00 19.2 75 0.0 0 0.0 3.0 10.6 284
02/08/2020 1:10 19.1 75 0.0 0 0.0 2.4 8.6 296
02/08/2020 1:20 19.1 75 0.0 0 0.0 2.3 8.1 305
02/08/2020 1:30 19.1 76 0.0 0 0.0 3.0 10.7 298
02/08/2020 1:40 19.1 76 0.0 0 0.0 2.6 9.3 293
02/08/2020 1:50 19.0 76 0.0 0 0.0 2.8 9.9 312
02/08/2020 2:00 19.0 75 0.0 0 0.0 2.8 10.1 291
02/08/2020 2:10 18.9 75 0.0 0 0.0 2.7 9.8 270
02/08/2020 2:20 18.9 74 0.0 0 0.0 2.5 9.1 279
02/08/2020 2:30 18.8 74 0.0 0 0.0 3.4 12.3 307
02/08/2020 2:40 18.5 73 0.0 0 0.0 4.2 15.0 287
02/08/2020 2:50 18.4 73 0.0 0 0.0 3.1 11.1 299
02/08/2020 3:00 18.0 73 0.0 0 0.0 2.7 9.9 319
02/08/2020 3:10 17.9 74 0.0 0 0.0 3.1 11.0 327
02/08/2020 3:20 17.9 75 0.0 0 0.0 2.4 8.6 319
02/08/2020 3:30 17.7 75 0.0 0 0.0 2.4 8.8 300
02/08/2020 3:40 17.7 76 0.0 0 0.0 2.6 9.4 299
02/08/2020 3:50 17.8 76 0.0 0 0.0 2.4 8.7 293
02/08/2020 4:00 17.7 76 0.0 0 0.0 2.9 10.5 277
02/08/2020 4:10 17.5 77 0.0 0 0.0 3.3 11.8 289
02/08/2020 4:20 17.7 77 0.0 0 0.0 4.0 14.4 289
02/08/2020 4:30 17.7 77 0.0 0 0.0 2.5 9.1 294
02/08/2020 4:40 17.9 77 0.0 0 0.0 2.2 7.7 304
02/08/2020 4:50 18.0 77 0.0 0 0.0 2.4 8.5 324
02/08/2020 5:00 17.9 77 0.0 0 0.0 2.0 7.1 307
02/08/2020 5:10 17.8 77 0.0 0 0.0 3.7 13.2 292
02/08/2020 5:20 17.8 76 6.0 0 0.0 3.6 12.9 297
02/08/2020 5:30 17.9 76 23.3 0 0.0 2.9 10.4 302
02/08/2020 5:40 17.9 75 32.2 0 0.0 2.8 10.1 318
02/08/2020 5:50 17.9 75 42.4 26 0.0 2.8 9.9 311
02/08/2020 6:00 18.1 75 74.3 250 0.0 3.6 12.8 316
02/08/2020 6:10 18.1 75 62.1 44 0.0 2.9 10.5 322
02/08/2020 6:20 18.3 75 70.2 38 0.0 2.4 8.6 314
02/08/2020 6:30 18.7 73 219.7 588 0.0 2.8 10.0 312
02/08/2020 6:40 19.2 70 265.2 600 0.0 2.0 7.3 307
02/08/2020 6:50 19.6 69 314.3 600 0.0 2.5 9.0 319
02/08/2020 7:00 19.8 68 374.5 600 0.0 3.0 10.8 309
02/08/2020 7:10 20.1 66 398.3 600 0.0 3.2 11.5 324
02/08/2020 7:20 20.3 65 458.2 600 0.0 2.7 9.6 326
02/08/2020 7:30 20.4 64 453.0 600 0.0 2.6 9.5 303
02/08/2020 7:40 20.6 64 510.9 600 0.0 3.2 11.7 307
02/08/2020 7:50 20.6 64 575.0 600 0.0 2.8 9.9 319
02/08/2020 8:00 20.8 64 682.4 600 0.0 3.2 11.6 328
02/08/2020 8:10 21.0 63 609.1 600 0.0 3.5 12.5 314
02/08/2020 8:20 20.6 64 544.5 558 0.0 3.1 11.1 326
02/08/2020 8:30 21.1 61 571.3 556 0.0 3.0 10.7 339
02/08/2020 8:40 21.2 61 574.9 508 0.0 3.6 13.0 311
02/08/2020 8:50 20.9 62 500.0 410 0.0 3.8 13.6 305
02/08/2020 9:00 20.5 64 428.8 312 0.0 4.6 16.5 304
02/08/2020 9:10 20.3 64 401.1 172 0.0 3.5 12.6 328
02/08/2020 9:20 20.5 62 634.2 488 0.0 3.9 14.0 335
02/08/2020 9:30 21.2 59 769.1 600 0.0 4.6 16.5 332
02/08/2020 9:40 21.6 58 836.0 600 0.0 3.5 12.6 326
02/08/2020 9:50 22.1 57 805.0 582 0.0 3.9 13.9 342
02/08/2020 10:00 21.8 58 708.6 520 0.0 3.3 12.0 312
02/08/2020 10:10 21.8 58 759.2 524 0.0 3.7 13.2 332
02/08/2020 10:20 21.8 58 838.0 556 0.0 3.6 12.9 340
02/08/2020 10:30 21.9 58 920.0 600 0.0 4.7 17.0 342
02/08/2020 10:40 22.0 58 914.0 600 0.0 4.2 15.2 355
02/08/2020 10:50 22.3 57 922.0 594 0.0 4.6 16.6 349
02/08/2020 11:00 22.2 57 978.0 594 0.0 4.2 15.2 336
02/08/2020 11:10 22.0 58 931.0 550 0.0 4.5 16.2 331
02/08/2020 11:20 21.8 58 974.0 600 0.0 4.1 14.9 342
02/08/2020 11:30 22.1 57 1003.0 600 0.0 4.0 14.5 342
02/08/2020 11:40 22.1 55 870.0 600 0.0 4.8 17.4 341
02/08/2020 11:50 21.4 58 648.4 600 0.0 4.7 17.0 351
02/08/2020 12:00 21.4 57 648.0 600 0.0 4.9 17.6 355
02/08/2020 12:10 21.7 55 668.6 600 0.0 4.0 14.4 336
02/08/2020 12:20 22.3 54 749.1 600 0.0 4.6 16.7 347
02/08/2020 12:30 22.1 55 705.2 600 0.0 3.9 14.2 350
02/08/2020 12:40 21.6 57 821.0 600 0.0 5.2 18.6 0
02/08/2020 12:50 21.3 59 619.2 600 0.0 4.9 17.7 1
02/08/2020 13:00 22.1 57 1015.0 600 0.0 4.6 16.6 354
02/08/2020 13:10 22.5 55 851.0 600 0.0 5.1 18.2 355
02/08/2020 13:20 22.4 54 713.7 600 0.0 3.8 13.8 351
02/08/2020 13:30 22.6 54 740.7 600 0.0 3.9 13.9 6
02/08/2020 13:40 22.3 53 757.9 600 0.0 3.7 13.2 335
02/08/2020 13:50 22.0 52 610.1 556 0.0 3.3 11.9 324
02/08/2020 14:00 21.4 53 407.3 0 0.0 4.1 14.8 327
02/08/2020 14:10 20.9 55 422.7 62 0.0 3.9 14.0 343
02/08/2020 14:20 21.0 56 389.3 160 0.0 3.7 13.5 355
02/08/2020 14:30 20.8 57 312.5 0 0.0 4.7 17.0 9
02/08/2020 14:40 21.0 57 411.8 208 0.0 3.9 14.1 358
02/08/2020 14:50 21.3 56 444.0 470 0.0 3.4 12.4 347
02/08/2020 15:00 21.1 56 462.7 600 0.0 4.1 14.6 332
02/08/2020 15:10 21.4 54 478.1 600 0.0 3.7 13.3 332
02/08/2020 15:20 21.3 54 418.4 522 0.0 4.2 15.2 359
02/08/2020 15:30 21.1 55 422.2 522 0.0 3.7 13.3 355
02/08/2020 15:40 21.4 54 355.4 322 0.0 3.1 11.3 322
02/08/2020 15:50 21.2 54 298.4 0 0.0 2.6 9.3 320
02/08/2020 16:00 20.9 55 265.9 0 0.0 3.9 14.1 305
02/08/2020 16:10 20.6 55 239.8 0 0.0 3.0 10.8 313
02/08/2020 16:20 20.6 55 244.3 0 0.0 3.2 11.4 325
02/08/2020 16:30 20.5 55 239.0 0 0.0 3.9 14.1 331
02/08/2020 16:40 20.7 55 222.2 0 0.0 2.5 9.0 314
02/08/2020 16:50 20.5 55 225.4 0 0.0 2.5 9.0 355
02/08/2020 17:00 20.6 55 224.2 0 0.0 2.2 7.9 319
02/08/2020 17:10 20.5 55 236.4 284 0.0 3.6 13.0 302
02/08/2020 17:20 20.5 54 237.8 360 0.0 3.9 14.0 316
02/08/2020 17:30 20.3 55 211.6 278 0.0 3.9 14.2 308
02/08/2020 17:40 20.3 54 205.5 406 0.0 4.3 15.4 309
02/08/2020 17:50 20.3 55 248.2 586 0.0 4.6 16.6 307
02/08/2020 18:00 19.9 58 121.0 226 0.0 5.2 18.9 298
02/08/2020 18:10 19.3 60 75.4 12 0.0 4.3 15.5 313
02/08/2020 18:20 19.0 62 87.4 116 0.0 3.3 11.7 317
02/08/2020 18:30 18.9 62 76.1 0 0.0 3.3 11.7 317
02/08/2020 18:40 18.8 62 64.4 78 0.0 4.1 14.6 318
02/08/2020 18:50 18.7 63 50.6 0 0.0 3.0 10.7 326
02/08/2020 19:00 18.4 64 32.5 0 0.0 3.4 12.3 304
02/08/2020 19:10 18.3 65 15.2 0 0.0 3.3 11.9 319
02/08/2020 19:20 18.1 65 0.0 0 0.0 3.6 12.9 315
02/08/2020 19:30 18.0 66 0.0 0 0.0 3.7 13.4 307
02/08/2020 19:40 17.9 66 0.0 0 0.0 4.4 15.7 300
02/08/2020 19:50 17.8 66 0.0 0 0.0 4.7 17.0 299
02/08/2020 20:00 17.7 66 0.0 0 0.0 4.7 17.0 293
02/08/2020 20:10 17.7 66 0.0 0 0.0 3.5 12.5 299
02/08/2020 20:20 17.5 65 0.0 0 0.0 4.3 15.6 302
02/08/2020 20:30 17.5 65 0.0 0 0.0 3.7 13.4 293
02/08/2020 20:40 17.5 65 0.0 0 0.0 4.4 15.8 297
02/08/2020 20:50 17.5 65 0.0 0 0.0 4.7 16.9 298
02/08/2020 21:00 17.4 65 0.0 0 0.0 4.1 14.7 304
02/08/2020 21:10 17.2 65 0.0 0 0.0 3.7 13.3 304
02/08/2020 21:20 17.3 65 0.0 0 0.0 3.6 12.8 304
02/08/2020 21:30 17.2 66 0.0 0 0.0 2.8 10.2 298
02/08/2020 21:40 17.0 67 0.0 0 0.0 2.2 7.9 300
02/08/2020 21:50 17.0 67 0.0 0 0.0 3.5 12.7 293
02/08/2020 22:00 17.1 67 0.0 0 0.0 4.6 16.5 294
02/08/2020 22:10 17.2 68 0.0 0 0.0 5.3 19.1 295
02/08/2020 22:20 17.1 68 0.0 0 0.0 3.9 14.0 301
02/08/2020 22:30 17.2 68 0.0 0 0.0 3.5 12.5 296
02/08/2020 22:40 17.2 68 0.0 0 0.0 3.2 11.5 303
02/08/2020 22:50 17.1 68 0.0 0 0.0 3.2 11.7 298
02/08/2020 23:00 17.1 67 0.0 0 0.0 2.7 9.8 312
02/08/2020 23:10 17.1 67 0.0 0 0.0 3.3 12.0 307
02/08/2020 23:20 16.8 68 0.0 0 0.0 3.9 14.1 306
02/08/2020 23:30 16.8 67 0.0 0 0.0 4.6 16.5 306
02/08/2020 23:40 16.7 67 0.0 0 0.0 4.1 14.7 302
02/08/2020 23:50 16.6 67 0.0 0 0.0 4.4 15.7 296
Anterior Página 1 de 1 Siguiente

NOTA: Tipo de datos según el color:
   - Valores diarios o 10 minutos correctos
   - Valores diarios calculados a partir de un número de datos 10 minutos menor que 144 y mayor que 120, o de un número de datos semihorarios menor que 48 y mayor que 40 (caso de las estaciones de INTIA y del Ministerio)
   - Valores diez minutos estimados


Contacto        Enlaces        Aviso legal